Time;durP1;ratioP1;P1;durP2;ratioP2;P2;SDS_P1;SDS_P2;PMS_P1;PMS_P2;Temp;Humidity;BMP_temperature;BMP_pressure;BME280_temperature;BME280_humidity;BME280_pressure;Samples;Min_cycle;Max_cycle;Signal;HPM_P1;HPM_P2
2023/01/05 00:02:11;;;;;;;;;;;9.00;99.90;;;;;;5007437;28;20885;-66
2023/01/05 00:04:38;;;;;;;;;;;9.00;99.90;;;;;;5008290;28;19921;-65
2023/01/05 00:07:04;;;;;;;;;;;9.00;99.90;;;;;;5006863;28;19932;-65
2023/01/05 00:09:31;;;;;;;;;;;8.90;99.90;;;;;;5008434;28;20155;-65
2023/01/05 00:23:04;;;;;;;;;;;8.80;99.90;;;;;;5009116;28;19968;-64
2023/01/05 00:25:32;;;;;;;;;;;8.80;99.90;;;;;;4977464;28;20015;-65
2023/01/05 00:27:59;;;;;;;;;;;8.80;99.90;;;;;;5008699;28;19924;-65
2023/01/05 00:30:30;;;;;;;;;;;8.80;99.90;;;;;;5008471;28;20861;-66
2023/01/05 00:32:57;;;;;;;;;;;8.80;99.90;;;;;;5008786;28;20425;-65
2023/01/05 00:35:24;;;;;;;;;;;8.80;99.90;;;;;;5008808;28;19925;-65
2023/01/05 00:37:50;;;;;;;;;;;8.90;99.90;;;;;;5008200;28;20007;-66
2023/01/05 00:40:20;;;;;;;;;;;8.90;99.90;;;;;;5009541;28;19925;-65
2023/01/05 00:42:47;;;;;;;;;;;8.90;99.90;;;;;;5010485;28;19968;-65
2023/01/05 00:45:15;;;;;;;;;;;8.90;99.90;;;;;;4994933;28;19925;-64
2023/01/05 00:47:42;;;;;;;;;;;8.90;99.90;;;;;;4977651;28;20635;-65
2023/01/05 00:50:11;;;;;;;;;;;8.90;99.90;;;;;;5011173;28;19927;-66
2023/01/05 00:52:38;;;;;;;;;;;8.90;99.90;;;;;;5009281;28;20019;-65
2023/01/05 00:55:05;;;;;;;;;;;8.90;99.90;;;;;;5009051;28;19925;-66
2023/01/05 00:57:31;;;;;;;;;;;8.90;99.90;;;;;;5010050;28;20784;-65
2023/01/05 01:00:00;;;;;;;;;;;8.90;99.90;;;;;;5011096;28;19931;-65
2023/01/05 01:02:29;;;;;;;;;;;8.90;99.90;;;;;;4978965;28;19936;-66
2023/01/05 01:04:55;;;;;;;;;;;8.90;99.90;;;;;;5011631;28;19929;-66
2023/01/05 01:07:22;;;;;;;;;;;8.90;99.90;;;;;;4979286;28;19929;-66
2023/01/05 01:09:49;;;;;;;;;;;8.80;99.90;;;;;;5010533;28;19921;-65
2023/01/05 01:12:16;;;;;;;;;;;8.90;99.90;;;;;;5009970;28;19994;-66
2023/01/05 01:14:45;;;;;;;;;;;8.90;99.90;;;;;;4993831;28;19932;-66
2023/01/05 01:17:12;;;;;;;;;;;8.90;99.90;;;;;;4977752;28;19932;-66
2023/01/05 01:19:39;;;;;;;;;;;8.90;99.90;;;;;;5010967;28;19925;-65
2023/01/05 01:22:05;;;;;;;;;;;8.90;99.90;;;;;;4979427;28;19925;-66
2023/01/05 01:24:32;;;;;;;;;;;8.90;99.90;;;;;;5009950;28;19924;-65
2023/01/05 01:26:59;;;;;;;;;;;8.90;99.90;;;;;;4978835;28;19924;-66
2023/01/05 01:29:25;;;;;;;;;;;8.90;99.90;;;;;;5010354;28;20003;-66
2023/01/05 01:31:52;;;;;;;;;;;8.80;99.90;;;;;;5011201;28;20643;-65
2023/01/05 01:34:19;;;;;;;;;;;8.80;99.90;;;;;;4992713;28;20023;-66
2023/01/05 01:36:46;;;;;;;;;;;8.80;99.90;;;;;;4981053;28;20023;-64
2023/01/05 01:39:14;;;;;;;;;;;8.80;99.90;;;;;;4994610;28;19932;-64
2023/01/05 01:41:45;;;;;;;;;;;8.80;99.90;;;;;;4999390;28;20765;-66
2023/01/05 01:44:31;;;;;;;;;;;8.70;99.90;;;;;;4994465;28;20636;-65
2023/01/05 01:46:58;;;;;;;;;;;8.80;99.90;;;;;;5006591;28;20381;-65
2023/01/05 01:49:25;;;;;;;;;;;8.80;99.90;;;;;;4993386;28;20346;-65
2023/01/05 01:51:51;;;;;;;;;;;8.80;99.90;;;;;;5010136;28;19932;-66
2023/01/05 01:54:18;;;;;;;;;;;8.90;99.90;;;;;;4993750;28;19931;-66
2023/01/05 01:56:47;;;;;;;;;;;8.90;99.90;;;;;;4994171;28;19924;-65
2023/01/05 01:59:15;;;;;;;;;;;8.90;99.90;;;;;;5007315;28;20160;-66
2023/01/05 02:01:42;;;;;;;;;;;8.90;99.90;;;;;;4979301;28;20019;-65
2023/01/05 02:04:09;;;;;;;;;;;8.90;99.90;;;;;;5008889;28;19929;-66
2023/01/05 02:06:37;;;;;;;;;;;8.90;99.90;;;;;;5010370;28;19935;-65
2023/01/05 02:09:04;;;;;;;;;;;8.90;99.90;;;;;;5008596;28;19925;-66
2023/01/05 02:11:34;;;;;;;;;;;8.90;99.90;;;;;;5008991;28;19924;-66
2023/01/05 02:14:09;;;;;;;;;;;9.00;99.90;;;;;;4980037;28;19924;-66
2023/01/05 02:16:52;;;;;;;;;;;8.90;99.90;;;;;;4976179;28;20015;-65
2023/01/05 02:19:37;;;;;;;;;;;9.00;99.90;;;;;;5009578;28;20015;-65
2023/01/05 02:22:07;;;;;;;;;;;9.00;99.90;;;;;;5006914;28;19929;-66
2023/01/05 02:24:56;;;;;;;;;;;8.90;99.90;;;;;;4994379;28;19925;-65
2023/01/05 02:27:35;;;;;;;;;;;9.00;99.90;;;;;;5008110;28;19925;-68
2023/01/05 02:30:17;;;;;;;;;;;8.90;99.90;;;;;;4977934;28;19925;-65
2023/01/05 02:33:04;;;;;;;;;;;8.90;99.90;;;;;;4995720;28;19994;-65
2023/01/05 02:35:36;;;;;;;;;;;8.90;99.90;;;;;;4981321;28;19928;-65
2023/01/05 02:38:22;;;;;;;;;;;8.90;99.90;;;;;;4995652;28;19932;-65
2023/01/05 02:40:53;;;;;;;;;;;8.90;99.90;;;;;;5008610;28;20470;-65
2023/01/05 02:43:20;;;;;;;;;;;8.90;99.90;;;;;;4975625;28;19929;-66
2023/01/05 02:45:47;;;;;;;;;;;8.90;99.90;;;;;;4994122;28;20020;-65
2023/01/05 02:48:14;;;;;;;;;;;8.90;99.90;;;;;;4974100;28;20393;-66
2023/01/05 02:50:48;;;;;;;;;;;8.80;99.90;;;;;;4976434;28;20439;-66
2023/01/05 02:53:20;;;;;;;;;;;8.80;99.90;;;;;;5009818;28;20400;-65
2023/01/05 02:55:53;;;;;;;;;;;8.80;99.90;;;;;;4976306;28;19925;-66
2023/01/05 02:58:20;;;;;;;;;;;8.80;99.90;;;;;;4993087;28;20446;-66
2023/01/05 03:00:50;;;;;;;;;;;8.80;99.90;;;;;;5010234;28;19999;-65
2023/01/05 03:03:31;;;;;;;;;;;8.90;99.90;;;;;;5009051;28;19924;-66
2023/01/05 03:06:02;;;;;;;;;;;9.00;99.90;;;;;;4975585;28;20963;-65
2023/01/05 03:08:30;;;;;;;;;;;9.10;99.90;;;;;;5008792;28;19924;-65
2023/01/05 03:13:55;;;;;;;;;;;9.20;99.90;;;;;;4995661;28;19925;-66
2023/01/05 03:16:29;;;;;;;;;;;9.30;99.90;;;;;;4977127;28;20694;-67
2023/01/05 03:35:56;;;;;;;;;;;9.60;99.90;;;;;;4976491;28;19925;-66
2023/01/05 03:38:31;;;;;;;;;;;9.60;99.90;;;;;;4962190;28;19929;-66
2023/01/05 03:41:01;;;;;;;;;;;9.60;99.90;;;;;;4974943;28;20855;-65
2023/01/05 03:43:31;;;;;;;;;;;9.60;99.90;;;;;;5009159;28;20113;-65
2023/01/05 03:45:59;;;;;;;;;;;9.60;99.90;;;;;;4977998;28;20183;-65
2023/01/05 03:48:28;;;;;;;;;;;9.60;99.90;;;;;;4977308;28;19929;-66
2023/01/05 03:50:55;;;;;;;;;;;9.60;99.90;;;;;;5010149;28;19932;-65
2023/01/05 03:53:23;;;;;;;;;;;9.50;99.90;;;;;;4991394;28;19960;-65
2023/01/05 03:55:50;;;;;;;;;;;9.60;99.90;;;;;;4992334;28;19920;-65
2023/01/05 03:58:17;;;;;;;;;;;9.50;99.90;;;;;;4999601;28;20015;-66
2023/01/05 04:00:47;;;;;;;;;;;9.50;99.90;;;;;;4994114;28;19987;-65
2023/01/05 04:03:16;;;;;;;;;;;9.50;99.90;;;;;;4976574;28;19925;-64
2023/01/05 04:05:43;;;;;;;;;;;9.50;99.90;;;;;;4996452;28;20746;-65
2023/01/05 04:08:10;;;;;;;;;;;9.50;99.90;;;;;;4976333;28;20127;-65
2023/01/05 04:10:37;;;;;;;;;;;9.50;99.90;;;;;;5010431;28;19920;-66
2023/01/05 04:13:04;;;;;;;;;;;9.50;99.90;;;;;;4994481;28;19924;-66
2023/01/05 04:15:32;;;;;;;;;;;9.40;99.90;;;;;;4995552;28;20086;-66
2023/01/05 04:18:02;;;;;;;;;;;9.50;99.90;;;;;;4998814;28;19932;-68
2023/01/05 04:20:29;;;;;;;;;;;9.40;99.90;;;;;;5012842;28;19975;-65
2023/01/05 04:22:57;;;;;;;;;;;9.40;99.90;;;;;;5000737;28;20711;-65
2023/01/05 04:25:24;;;;;;;;;;;9.30;99.90;;;;;;4994973;28;19925;-66
2023/01/05 04:27:51;;;;;;;;;;;9.40;99.90;;;;;;5012766;28;19929;-65
2023/01/05 04:30:20;;;;;;;;;;;9.30;99.90;;;;;;4980803;28;19952;-66
2023/01/05 04:32:48;;;;;;;;;;;9.30;99.90;;;;;;4980207;28;19932;-67
2023/01/05 04:35:15;;;;;;;;;;;9.30;99.90;;;;;;4981639;28;20015;-65
2023/01/05 04:37:44;;;;;;;;;;;9.30;99.90;;;;;;4996415;28;20429;-66
2023/01/05 04:40:12;;;;;;;;;;;9.30;99.90;;;;;;4995498;28;20059;-65
2023/01/05 04:42:47;;;;;;;;;;;9.30;99.90;;;;;;4994637;28;19929;-64
2023/01/05 04:45:14;;;;;;;;;;;9.30;99.90;;;;;;4999065;28;19924;-65
2023/01/05 04:47:42;;;;;;;;;;;9.30;99.90;;;;;;5011146;28;19925;-65
2023/01/05 04:50:10;;;;;;;;;;;9.30;99.90;;;;;;4995697;28;20759;-65
2023/01/05 04:52:37;;;;;;;;;;;9.30;99.90;;;;;;4996319;28;19925;-66
2023/01/05 04:55:06;;;;;;;;;;;9.30;99.90;;;;;;4978939;28;19925;-68
2023/01/05 04:57:33;;;;;;;;;;;9.30;99.90;;;;;;4977364;28;19929;-66
2023/01/05 05:00:01;;;;;;;;;;;9.30;99.90;;;;;;4998007;28;19931;-66
2023/01/05 05:02:30;;;;;;;;;;;9.30;99.90;;;;;;4994039;28;20444;-65
2023/01/05 05:04:58;;;;;;;;;;;9.30;99.90;;;;;;4995274;28;19925;-65
2023/01/05 05:07:25;;;;;;;;;;;9.30;99.90;;;;;;4996005;28;19931;-66
2023/01/05 05:09:52;;;;;;;;;;;9.30;99.90;;;;;;5012650;28;20521;-65
2023/01/05 05:12:19;;;;;;;;;;;9.30;99.90;;;;;;4978736;28;20006;-65
2023/01/05 05:14:49;;;;;;;;;;;9.30;99.90;;;;;;4976466;28;19964;-68
2023/01/05 05:17:16;;;;;;;;;;;9.30;99.90;;;;;;4977789;28;19925;-66
2023/01/05 05:19:43;;;;;;;;;;;9.30;99.90;;;;;;4996106;28;19931;-68
2023/01/05 05:22:11;;;;;;;;;;;9.30;99.90;;;;;;4980473;28;20409;-68
2023/01/05 05:24:38;;;;;;;;;;;9.30;99.90;;;;;;5011248;28;19952;-67
2023/01/05 05:27:06;;;;;;;;;;;9.30;99.90;;;;;;4996882;28;19975;-67
2023/01/05 05:29:33;;;;;;;;;;;9.30;99.90;;;;;;4994912;28;19960;-55
2023/01/05 05:32:00;;;;;;;;;;;9.30;99.90;;;;;;5009236;28;20038;-54
2023/01/05 05:34:26;;;;;;;;;;;9.30;99.90;;;;;;5009685;28;19929;-54
2023/01/05 05:36:53;;;;;;;;;;;9.30;99.90;;;;;;5007983;28;19932;-55
2023/01/05 05:39:20;;;;;;;;;;;9.30;99.90;;;;;;5008658;28;19929;-55
2023/01/05 05:41:47;;;;;;;;;;;9.30;99.90;;;;;;5010596;28;19939;-55
2023/01/05 05:44:13;;;;;;;;;;;9.30;99.90;;;;;;4993610;28;19999;-56
2023/01/05 05:46:40;;;;;;;;;;;9.30;99.90;;;;;;5008666;28;19935;-54
2023/01/05 05:49:07;;;;;;;;;;;9.30;99.90;;;;;;5007162;28;20016;-54
2023/01/05 05:51:34;;;;;;;;;;;9.30;99.90;;;;;;5009693;28;19978;-54
2023/01/05 05:54:01;;;;;;;;;;;9.30;99.90;;;;;;5010083;28;20903;-55
2023/01/05 05:56:27;;;;;;;;;;;9.30;99.90;;;;;;5010090;28;20666;-54
2023/01/05 05:58:54;;;;;;;;;;;9.30;99.90;;;;;;5008063;28;19936;-55
2023/01/05 06:01:27;;;;;;;;;;;9.30;99.90;;;;;;5010271;28;19951;-55
2023/01/05 06:03:54;;;;;;;;;;;9.30;99.90;;;;;;5011196;28;19924;-52
2023/01/05 06:06:21;;;;;;;;;;;9.30;99.90;;;;;;5009624;28;19931;-54
2023/01/05 06:08:48;;;;;;;;;;;9.20;99.90;;;;;;5007733;28;19986;-53
2023/01/05 06:11:14;;;;;;;;;;;9.20;99.90;;;;;;5009481;28;20011;-53
2023/01/05 06:13:41;;;;;;;;;;;9.20;99.90;;;;;;5008630;28;20538;-52
2023/01/05 06:16:08;;;;;;;;;;;9.20;99.90;;;;;;5009799;28;20667;-53
2023/01/05 06:18:34;;;;;;;;;;;9.10;99.90;;;;;;5008854;28;19925;-53
2023/01/05 06:21:01;;;;;;;;;;;9.10;99.90;;;;;;5008231;28;19920;-52
2023/01/05 06:23:28;;;;;;;;;;;9.10;99.90;;;;;;5006237;28;19931;-50
2023/01/05 06:25:54;;;;;;;;;;;9.00;99.90;;;;;;4989893;28;19932;-53
2023/01/05 06:28:21;;;;;;;;;;;9.10;99.90;;;;;;5010304;28;20045;-53
2023/01/05 06:30:48;;;;;;;;;;;9.00;99.90;;;;;;5005675;28;20015;-52
2023/01/05 06:33:14;;;;;;;;;;;9.00;99.90;;;;;;4992558;28;20276;-55
2023/01/05 06:35:41;;;;;;;;;;;9.00;99.90;;;;;;5008175;28;19931;-50
2023/01/05 06:38:09;;;;;;;;;;;9.00;99.90;;;;;;5008097;28;20011;-51
2023/01/05 06:40:38;;;;;;;;;;;9.00;99.90;;;;;;5008140;28;19961;-52
2023/01/05 06:43:05;;;;;;;;;;;9.00;99.90;;;;;;5007535;28;20020;-54
2023/01/05 06:45:31;;;;;;;;;;;9.00;99.90;;;;;;5008133;28;19925;-53
2023/01/05 06:47:59;;;;;;;;;;;9.00;99.90;;;;;;5008340;28;19932;-53
2023/01/05 06:50:26;;;;;;;;;;;9.00;99.90;;;;;;5003707;28;20019;-52
2023/01/05 06:52:53;;;;;;;;;;;8.90;99.90;;;;;;5008251;28;20147;-53
2023/01/05 06:55:20;;;;;;;;;;;8.90;99.90;;;;;;5007516;28;19935;-52
2023/01/05 06:57:47;;;;;;;;;;;8.90;99.90;;;;;;5008100;28;19928;-52
2023/01/05 07:00:14;;;;;;;;;;;8.90;99.90;;;;;;5003666;28;19925;-51
2023/01/05 07:02:41;;;;;;;;;;;9.00;99.90;;;;;;4991631;28;19986;-51
2023/01/05 07:05:08;;;;;;;;;;;9.00;99.90;;;;;;4995088;28;20663;-53
2023/01/05 07:07:35;;;;;;;;;;;9.00;99.90;;;;;;5004886;28;19987;-57
2023/01/05 07:10:02;;;;;;;;;;;9.00;99.90;;;;;;5006822;28;20023;-59
2023/01/05 07:12:30;;;;;;;;;;;9.00;99.90;;;;;;5008245;28;19929;-53
2023/01/05 07:14:57;;;;;;;;;;;9.00;99.90;;;;;;5009511;28;20288;-57
2023/01/05 07:17:24;;;;;;;;;;;9.00;99.90;;;;;;5006234;28;19964;-56
2023/01/05 07:19:50;;;;;;;;;;;8.90;99.90;;;;;;4977224;28;19921;-57
2023/01/05 07:22:17;;;;;;;;;;;9.00;99.90;;;;;;5008101;28;20024;-53
2023/01/05 07:24:44;;;;;;;;;;;8.90;99.90;;;;;;5009979;28;20652;-52
2023/01/05 07:27:11;;;;;;;;;;;9.00;99.90;;;;;;5006896;28;19925;-48
2023/01/05 07:29:37;;;;;;;;;;;9.00;99.90;;;;;;5009135;28;19931;-48
2023/01/05 07:32:04;;;;;;;;;;;9.00;99.90;;;;;;5008510;28;20775;-50
2023/01/05 07:34:31;;;;;;;;;;;9.10;99.90;;;;;;5007671;28;19925;-49
2023/01/05 07:36:57;;;;;;;;;;;9.10;99.90;;;;;;5007960;28;19960;-51
2023/01/05 07:39:24;;;;;;;;;;;9.10;99.90;;;;;;5008169;28;19960;-48
2023/01/05 07:41:51;;;;;;;;;;;9.20;99.90;;;;;;5009152;28;19924;-51
2023/01/05 07:44:17;;;;;;;;;;;9.20;99.90;;;;;;5007715;28;19976;-54
2023/01/05 07:46:44;;;;;;;;;;;9.20;99.90;;;;;;5008898;28;19924;-55
2023/01/05 07:49:11;;;;;;;;;;;9.30;99.90;;;;;;5007358;28;20587;-53
2023/01/05 07:51:37;;;;;;;;;;;9.30;99.90;;;;;;5006162;28;20059;-55
2023/01/05 07:54:04;;;;;;;;;;;9.30;99.90;;;;;;5011813;28;19924;-51
2023/01/05 07:56:31;;;;;;;;;;;9.30;99.90;;;;;;5011078;28;19925;-53
2023/01/05 07:58:58;;;;;;;;;;;9.30;99.90;;;;;;5010918;28;19932;-53
2023/01/05 08:01:24;;;;;;;;;;;9.30;99.90;;;;;;5009253;28;19951;-53
2023/01/05 08:03:51;;;;;;;;;;;9.30;99.90;;;;;;5012757;28;19932;-54
2023/01/05 08:06:19;;;;;;;;;;;9.30;99.90;;;;;;4994645;28;19940;-53
2023/01/05 08:08:46;;;;;;;;;;;9.30;99.90;;;;;;5012293;28;19932;-51
2023/01/05 08:11:14;;;;;;;;;;;9.40;99.90;;;;;;5011209;28;19940;-50
2023/01/05 08:14:01;;;;;;;;;;;9.40;99.90;;;;;;5012597;28;19932;-51
2023/01/05 08:16:29;;;;;;;;;;;9.50;99.90;;;;;;5010065;28;19929;-53
2023/01/05 08:18:56;;;;;;;;;;;9.50;99.90;;;;;;5011850;28;20036;-53
2023/01/05 08:21:23;;;;;;;;;;;9.40;99.90;;;;;;4976702;28;19921;-53
2023/01/05 08:23:51;;;;;;;;;;;9.40;99.90;;;;;;5009703;28;19932;-53
2023/01/05 08:26:19;;;;;;;;;;;9.50;99.90;;;;;;4980154;28;19924;-54
2023/01/05 08:28:46;;;;;;;;;;;9.50;99.90;;;;;;5012155;28;20024;-52
2023/01/05 08:31:15;;;;;;;;;;;9.50;99.90;;;;;;5012306;28;19957;-55
2023/01/05 08:33:42;;;;;;;;;;;9.50;99.90;;;;;;5012670;28;19936;-57
2023/01/05 08:36:10;;;;;;;;;;;9.60;99.90;;;;;;5011115;28;19925;-53
2023/01/05 08:38:36;;;;;;;;;;;9.60;99.90;;;;;;5009857;28;19997;-56
2023/01/05 08:41:03;;;;;;;;;;;9.60;99.90;;;;;;5011264;28;20161;-52
2023/01/05 08:43:30;;;;;;;;;;;9.60;99.90;;;;;;5012095;28;19928;-54
2023/01/05 08:45:57;;;;;;;;;;;9.70;99.90;;;;;;5010585;28;19925;-55
2023/01/05 08:48:23;;;;;;;;;;;9.70;99.90;;;;;;5011843;28;19952;-51
2023/01/05 08:50:50;;;;;;;;;;;9.70;99.90;;;;;;5009078;28;20081;-52
2023/01/05 08:53:17;;;;;;;;;;;9.70;99.90;;;;;;5010143;28;19971;-54
2023/01/05 08:55:43;;;;;;;;;;;9.80;99.90;;;;;;5012033;28;19924;-51
2023/01/05 08:58:10;;;;;;;;;;;9.80;99.90;;;;;;5011595;28;19933;-54
2023/01/05 09:00:37;;;;;;;;;;;9.90;99.90;;;;;;5012012;28;20008;-53
2023/01/05 09:03:03;;;;;;;;;;;9.90;99.90;;;;;;4975944;28;20495;-53
2023/01/05 09:05:30;;;;;;;;;;;10.00;99.90;;;;;;5011341;28;20274;-53
2023/01/05 09:07:57;;;;;;;;;;;10.00;99.90;;;;;;5011949;28;20672;-51
2023/01/05 09:10:24;;;;;;;;;;;10.00;99.90;;;;;;4980263;28;19982;-52
2023/01/05 09:12:50;;;;;;;;;;;10.10;99.90;;;;;;4977076;28;19925;-53
2023/01/05 09:15:17;;;;;;;;;;;10.10;99.90;;;;;;5009582;28;19929;-54
2023/01/05 09:17:44;;;;;;;;;;;10.10;99.90;;;;;;4996755;28;19999;-52
2023/01/05 09:20:11;;;;;;;;;;;10.20;99.90;;;;;;5011429;28;20012;-53
2023/01/05 09:22:38;;;;;;;;;;;10.20;99.90;;;;;;5007125;28;19921;-52
2023/01/05 09:25:05;;;;;;;;;;;10.20;99.90;;;;;;5011339;28;20764;-54
2023/01/05 09:27:32;;;;;;;;;;;10.30;99.90;;;;;;5010167;28;20023;-53
2023/01/05 09:29:59;;;;;;;;;;;10.30;99.90;;;;;;5010905;28;19931;-54
2023/01/05 09:32:26;;;;;;;;;;;10.30;99.90;;;;;;5009209;28;19932;-52
2023/01/05 09:34:52;;;;;;;;;;;10.40;99.90;;;;;;5008395;28;19925;-54
2023/01/05 09:37:19;;;;;;;;;;;10.40;99.90;;;;;;5011153;28;20638;-54
2023/01/05 09:39:46;;;;;;;;;;;10.40;99.90;;;;;;5009047;28;19982;-53
2023/01/05 09:42:16;;;;;;;;;;;10.50;99.90;;;;;;5002109;28;20248;-53
2023/01/05 09:44:46;;;;;;;;;;;10.50;99.90;;;;;;5009441;28;19929;-54
2023/01/05 09:47:12;;;;;;;;;;;10.50;99.90;;;;;;5007964;28;20425;-53
2023/01/05 09:49:40;;;;;;;;;;;10.50;99.90;;;;;;5009094;28;19982;-50
2023/01/05 09:52:09;;;;;;;;;;;10.60;99.90;;;;;;5006988;28;20277;-53
2023/01/05 09:54:37;;;;;;;;;;;10.50;99.90;;;;;;5011291;28;19924;-52
2023/01/05 09:57:05;;;;;;;;;;;10.60;99.90;;;;;;5009636;28;19925;-52
2023/01/05 09:59:37;;;;;;;;;;;10.60;99.90;;;;;;5010581;28;19927;-52
2023/01/05 10:02:12;;;;;;;;;;;10.60;99.90;;;;;;5008655;28;19925;-53
2023/01/05 10:04:39;;;;;;;;;;;10.60;99.90;;;;;;5007546;28;19996;-54
2023/01/05 10:07:07;;;;;;;;;;;10.60;99.90;;;;;;5010733;28;19955;-54
2023/01/05 10:09:37;;;;;;;;;;;10.60;99.90;;;;;;5010954;28;19924;-54
2023/01/05 10:14:56;;;;;;;;;;;10.50;99.90;;;;;;5010090;28;19925;-54
2023/01/05 10:17:23;;;;;;;;;;;10.50;99.90;;;;;;5009019;28;19932;-53
2023/01/05 10:20:27;;;;;;;;;;;10.50;99.90;;;;;;5010369;28;20779;-52
2023/01/05 10:23:12;;;;;;;;;;;10.40;99.90;;;;;;5009711;28;20752;-51
2023/01/05 10:25:53;;;;;;;;;;;10.40;99.90;;;;;;5008925;28;19925;-52
2023/01/05 10:28:20;;;;;;;;;;;10.30;99.90;;;;;;5010360;28;20067;-54
2023/01/05 10:30:56;;;;;;;;;;;10.30;99.90;;;;;;4976635;28;19924;-53
2023/01/05 10:33:37;;;;;;;;;;;10.30;99.90;;;;;;5009593;28;19921;-54
2023/01/05 10:36:34;;;;;;;;;;;10.30;99.90;;;;;;5009401;28;20052;-54
2023/01/05 10:39:40;;;;;;;;;;;10.20;99.90;;;;;;4975277;28;19925;-53
2023/01/05 10:42:29;;;;;;;;;;;10.20;99.90;;;;;;5006447;28;20011;-54
2023/01/05 10:45:02;;;;;;;;;;;10.20;99.90;;;;;;5010423;28;19925;-54
2023/01/05 10:47:30;;;;;;;;;;;10.20;99.90;;;;;;5009800;28;20058;-53
2023/01/05 10:49:57;;;;;;;;;;;10.20;99.90;;;;;;5009711;28;19978;-54
2023/01/05 10:52:24;;;;;;;;;;;10.20;99.90;;;;;;5005922;28;19964;-54
2023/01/05 10:54:51;;;;;;;;;;;10.20;99.90;;;;;;5007965;28;19925;-54
2023/01/05 10:57:27;;;;;;;;;;;10.20;99.90;;;;;;4978032;28;19925;-53
2023/01/05 11:00:30;;;;;;;;;;;10.20;99.90;;;;;;4994390;28;19936;-53
2023/01/05 11:02:57;;;;;;;;;;;10.20;99.90;;;;;;4980968;28;19924;-52
2023/01/05 11:05:34;;;;;;;;;;;10.20;99.90;;;;;;5007585;28;19928;-53
2023/01/05 11:08:04;;;;;;;;;;;10.30;99.90;;;;;;5008987;28;19932;-53
2023/01/05 11:10:35;;;;;;;;;;;10.30;99.90;;;;;;5008626;28;19968;-53
2023/01/05 11:13:06;;;;;;;;;;;10.30;99.90;;;;;;5008687;28;19976;-53
2023/01/05 11:15:38;;;;;;;;;;;10.30;99.90;;;;;;4971820;28;19932;-51
2023/01/05 11:18:06;;;;;;;;;;;10.30;99.90;;;;;;5006679;28;20597;-51
2023/01/05 11:20:32;;;;;;;;;;;10.30;99.90;;;;;;5009612;28;20035;-53
2023/01/05 11:22:59;;;;;;;;;;;10.30;99.90;;;;;;5006906;28;20020;-53
2023/01/05 11:25:26;;;;;;;;;;;10.20;99.90;;;;;;5007895;28;19924;-52
2023/01/05 11:30:13;;;;;;;1.13;0.68;;;10.20;99.90;;;;;;5049309;27;20212;-53
2023/01/05 11:32:45;;;;;;;0.75;0.52;;;10.30;99.90;;;;;;5025913;28;20049;-56
2023/01/05 11:35:36;;;;;;;0.40;0.38;;;10.40;99.90;;;;;;5030099;28;20478;-54
2023/01/05 11:38:03;;;;;;;0.77;0.70;;;10.40;99.90;;;;;;5029263;28;20089;-53
2023/01/05 11:40:33;;;;;;;1.15;0.50;;;10.50;99.90;;;;;;5026236;28;20877;-51
2023/01/05 11:43:08;;;;;;;0.60;0.60;;;10.60;99.90;;;;;;5027625;28;20087;-52
2023/01/05 11:45:58;;;;;;;2.15;0.50;;;10.70;99.90;;;;;;5029798;28;20044;-53
2023/01/05 11:48:31;;;;;;;0.63;0.60;;;10.80;99.90;;;;;;5024569;28;20049;-53
2023/01/05 11:50:58;;;;;;;0.63;0.63;;;10.90;99.90;;;;;;5028106;28;20065;-53
2023/01/05 11:53:36;;;;;;;1.20;0.80;;;10.90;99.90;;;;;;5025303;28;20041;-53
2023/01/05 11:56:22;;;;;;;1.63;0.60;;;11.00;99.90;;;;;;5028503;28;20724;-52
2023/01/05 11:58:54;;;;;;;3.95;0.65;;;11.10;99.90;;;;;;5025358;28;20073;-54
2023/01/05 12:01:43;;;;;;;0.90;0.52;;;11.20;99.90;;;;;;5025997;28;20046;-53
2023/01/05 12:04:33;;;;;;;1.48;0.70;;;11.20;99.90;;;;;;5025781;28;20052;-53
2023/01/05 12:07:23;;;;;;;1.45;0.77;;;11.30;99.90;;;;;;5027484;28;20145;-53
2023/01/05 12:10:13;;;;;;;1.95;0.95;;;11.40;99.90;;;;;;5024510;28;20961;-54
2023/01/05 12:12:57;;;;;;;1.52;0.57;;;11.40;99.90;;;;;;5024920;28;20037;-53
2023/01/05 12:16:08;;;;;;;1.27;0.50;;;11.40;99.90;;;;;;5026960;28;20505;-53
2023/01/05 12:19:02;;;;;;;1.30;0.75;;;11.30;99.90;;;;;;5027002;28;20717;-54
2023/01/05 12:21:39;;;;;;;2.05;0.40;;;11.30;99.90;;;;;;5027023;28;20051;-55
2023/01/05 12:24:11;;;;;;;0.52;0.50;;;11.30;99.90;;;;;;5025667;28;20706;-53
2023/01/05 12:26:57;;;;;;;0.70;0.40;;;11.30;99.90;;;;;;5025444;28;20706;-52
2023/01/05 12:29:49;;;;;;;3.22;0.50;;;11.40;99.90;;;;;;5026597;28;21188;-54
2023/01/05 12:32:57;;;;;;;1.95;0.40;;;11.50;99.90;;;;;;5024484;28;20055;-54
2023/01/05 12:36:01;;;;;;;1.20;0.50;;;11.50;99.90;;;;;;5026506;28;20820;-53
2023/01/05 12:38:28;;;;;;;2.05;0.77;;;11.40;99.90;;;;;;5025680;28;20196;-53
2023/01/05 12:41:13;;;;;;;;;;;11.40;99.90;;;;;;5014168;28;20114;-53
2023/01/05 12:43:57;;;;;;;1.98;0.40;;;11.40;99.90;;;;;;5020500;28;19972;-54
2023/01/05 12:46:32;;;;;;;0.70;0.70;;;11.40;99.90;;;;;;5013513;28;20103;-55
2023/01/05 12:49:09;;;;;;;1.10;0.40;;;11.30;99.90;;;;;;5012331;28;20497;-52
2023/01/05 12:51:42;;;;;;;1.60;0.63;;;11.30;99.90;;;;;;5025755;28;20127;-52
2023/01/05 12:54:24;;;;;;;0.73;0.40;;;11.30;99.90;;;;;;5011643;28;20506;-54
2023/01/05 12:57:00;;;;;;;1.25;0.45;;;11.20;99.90;;;;;;5013285;28;20068;-55
2023/01/05 12:59:39;;;;;;;0.40;0.40;;;11.20;99.90;;;;;;5025793;28;20049;-54
2023/01/05 13:02:06;;;;;;;1.00;0.43;;;11.10;99.90;;;;;;5012108;28;20045;-52
2023/01/05 13:04:44;;;;;;;0.60;0.45;;;11.10;99.90;;;;;;5011461;28;20045;-53
2023/01/05 13:07:26;;;;;;;1.17;0.52;;;11.00;99.90;;;;;;5011647;28;20149;-54
2023/01/05 13:10:05;;;;;;;2.75;0.50;;;11.00;99.90;;;;;;5013488;28;20829;-51
2023/01/05 13:12:34;;;;;;;0.70;0.40;;;11.00;99.90;;;;;;5011978;28;20037;-53
2023/01/05 13:15:14;;;;;;;0.32;0.32;;;11.00;99.90;;;;;;5018343;28;20517;-53
2023/01/05 13:17:46;;;;;;;0.60;0.60;;;11.00;99.90;;;;;;5015799;28;20140;-51
2023/01/05 13:20:34;;;;;;;1.65;0.38;;;11.00;99.90;;;;;;5008918;28;20133;-52
2023/01/05 13:23:23;;;;;;;0.40;0.40;;;11.00;99.90;;;;;;5010194;28;20053;-52
2023/01/05 13:26:01;;;;;;;1.30;0.50;;;11.00;99.90;;;;;;5013688;28;20147;-55
2023/01/05 13:28:28;;;;;;;0.40;0.40;;;11.00;99.90;;;;;;5012210;28;20805;-54
2023/01/05 13:31:35;;;;;;;0.40;0.40;;;11.00;99.90;;;;;;5018800;28;20476;-53
2023/01/05 13:34:15;;;;;;;1.25;0.50;;;11.00;99.90;;;;;;5011577;28;20542;-54
2023/01/05 13:37:08;;;;;;;0.80;0.50;;;11.00;99.90;;;;;;5014113;28;20115;-53
2023/01/05 13:39:35;;;;;;;2.60;1.10;;;11.00;99.90;;;;;;5009551;28;20059;-54
2023/01/05 13:42:39;;;;;;;1.50;0.70;;;11.00;99.90;;;;;;5011885;28;20045;-53
2023/01/05 13:45:31;;;;;;;3.03;1.38;;;11.00;99.90;;;;;;5012097;28;20807;-55
2023/01/05 13:48:19;;;;;;;1.25;0.70;;;10.90;99.90;;;;;;5012440;28;20148;-51
2023/01/05 13:51:25;;;;;;;3.60;1.67;;;10.90;99.90;;;;;;5014065;28;20191;-54
2023/01/05 13:53:55;;;;;;;3.03;1.42;;;10.90;99.90;;;;;;5027299;28;20100;-53
2023/01/05 13:56:25;;;;;;;2.63;1.73;;;10.90;99.90;;;;;;5011207;28;20056;-54
2023/01/05 13:59:21;;;;;;;2.60;1.27;;;10.90;99.90;;;;;;5012675;28;20068;-54
2023/01/05 14:02:23;;;;;;;1.08;0.60;;;10.90;99.90;;;;;;4982739;28;20053;-55
2023/01/05 14:04:50;;;;;;;1.77;0.60;;;10.80;99.90;;;;;;5011083;28;20052;-54
2023/01/05 14:07:17;;;;;;;;;;;10.80;99.90;;;;;;5010509;28;20064;-61
2023/01/05 14:09:46;;;;;;;1.20;0.63;;;10.80;99.90;;;;;;5011406;28;20626;-54
2023/01/05 14:12:16;;;;;;;0.90;0.40;;;10.80;99.90;;;;;;5010408;28;20048;-53
2023/01/05 14:15:25;;;;;;;1.50;0.60;;;10.80;99.90;;;;;;5011027;28;20049;-54
2023/01/05 14:17:51;;;;;;;1.77;0.60;;;10.80;99.90;;;;;;4991134;28;20049;-54
2023/01/05 14:20:33;;;;;;;;;;;10.80;99.90;;;;;;5011882;28;20053;-52
2023/01/05 14:23:01;;;;;;;1.77;0.80;;;10.80;99.90;;;;;;5008669;28;20725;-53
2023/01/05 14:25:37;;;;;;;0.50;0.50;;;10.70;99.90;;;;;;5011086;28;20108;-53
2023/01/05 14:28:16;;;;;;;0.60;0.60;;;10.70;99.90;;;;;;4993337;28;20053;-50
2023/01/05 14:30:42;;;;;;;0.40;0.40;;;10.70;99.90;;;;;;4993385;28;20598;-52
2023/01/05 14:33:10;;;;;;;;;;;10.70;99.90;;;;;;5001469;28;20041;-55
2023/01/05 14:35:37;;;;;;;0.47;0.47;;;10.70;99.90;;;;;;4992725;28;19983;-53
2023/01/05 14:38:13;;;;;;;0.50;0.50;;;10.70;99.90;;;;;;4992845;28;20034;-56
2023/01/05 14:40:43;;;;;;;0.95;0.73;;;10.70;99.90;;;;;;4993360;28;20840;-54
2023/01/05 14:43:33;;;;;;;3.97;0.80;;;10.70;99.90;;;;;;4992527;28;20137;-53
2023/01/05 14:46:08;;;;;;;2.22;0.88;;;10.70;99.90;;;;;;4993255;28;20042;-53
2023/01/05 14:48:42;;;;;;;1.33;1.00;;;10.70;99.90;;;;;;4990801;28;20124;-53
2023/01/05 14:51:25;;;;;;;1.23;0.80;;;10.60;99.90;;;;;;5008730;28;20033;-55
2023/01/05 14:53:54;;;;;;;1.02;0.50;;;10.60;99.90;;;;;;4991800;28;20045;-53
2023/01/05 14:56:24;;;;;;;0.45;0.45;;;10.60;99.90;;;;;;4995764;28;20146;-52
2023/01/05 14:59:19;;;;;;;1.48;1.08;;;10.60;99.90;;;;;;4990142;28;20042;-53
2023/01/05 15:01:55;;;;;;;3.17;1.45;;;10.60;99.90;;;;;;4987557;28;20899;-53
2023/01/05 15:04:39;;;;;;;0.82;0.68;;;10.60;99.90;;;;;;4992790;28;20128;-51